Time;durP1;ratioP1;P1;durP2;ratioP2;P2;SDS_P1;SDS_P2;PMS_P1;PMS_P2;Temp;Humidity;BMP_temperature;BMP_pressure;BME280_temperature;BME280_humidity;BME280_pressure;Samples;Min_cycle;Max_cycle;Signal;HPM_P1;HPM_P2
2021/10/08 04:51:23;;;;;;;17.40;10.68;;;;;;;;;;5652339;23;20431;-87
2021/10/08 04:53:50;;;;;;;13.25;9.45;;;;;;;;;;4947512;28;20044;-86
2021/10/08 04:56:18;;;;;;;15.32;9.65;;;;;;;;;;4949549;28;20040;-86
2021/10/08 04:58:46;;;;;;;14.52;10.43;;;;;;;;;;4947775;28;20122;-86
2021/10/08 05:01:14;;;;;;;14.38;9.65;;;;;;;;;;4937444;29;20059;-87
2021/10/08 05:03:42;;;;;;;12.45;9.20;;;;;;;;;;4917022;29;20049;-86
2021/10/08 05:06:11;;;;;;;15.25;9.88;;;;;;;;;;4935112;29;20078;-86
2021/10/08 05:08:46;;;;;;;17.95;9.95;;;;;;;;;;4931198;29;20048;-87
2021/10/08 05:11:16;;;;;;;18.63;9.65;;;;;;;;;;4921620;29;20144;-86
2021/10/08 05:13:43;;;;;;;15.15;9.35;;;;;;;;;;4917295;29;20127;-86
2021/10/08 05:16:11;;;;;;;17.05;10.68;;;;;;;;;;4931298;29;20060;-87
2021/10/08 05:18:39;;;;;;;15.60;10.52;;;;;;;;;;4931459;29;20050;-86
2021/10/08 05:21:07;;;;;;;14.93;11.98;;;;;;;;;;4932316;29;20047;-86
2021/10/08 05:23:35;;;;;;;19.05;10.68;;;;;;;;;;4933700;29;20054;-86
2021/10/08 05:26:04;;;;;;;14.95;10.82;;;;;;;;;;4931783;29;20040;-86
2021/10/08 05:28:33;;;;;;;18.58;13.27;;;;;;;;;;4932827;29;20122;-87
2021/10/08 05:31:01;;;;;;;18.67;12.75;;;;;;;;;;4938034;29;20040;-87
2021/10/08 05:33:28;;;;;;;17.67;12.88;;;;;;;;;;4947133;29;20036;-86
2021/10/08 05:35:56;;;;;;;22.63;13.95;;;;;;;;;;4935027;29;20079;-86
2021/10/08 05:38:24;;;;;;;19.77;14.05;;;;;;;;;;4946747;29;20047;-86
2021/10/08 05:40:54;;;;;;;25.45;15.32;;;;;;;;;;4940334;28;20047;-87
2021/10/08 05:43:25;;;;;;;25.02;15.70;;;;;;;;;;4949163;29;20019;-87
2021/10/08 05:45:57;;;;;;;29.27;16.20;;;;;;;;;;4938919;29;20039;-87
2021/10/08 05:48:25;;;;;;;20.75;13.70;;;;;;;;;;4955096;29;20032;-88
2021/10/08 05:50:53;;;;;;;18.73;12.75;;;;;;;;;;4925530;29;20048;-86
2021/10/08 05:53:21;;;;;;;15.60;11.75;;;;;;;;;;4922043;29;20488;-86
2021/10/08 05:55:48;;;;;;;15.38;11.82;;;;;;;;;;4918335;29;20055;-85
2021/10/08 05:58:16;;;;;;;17.33;12.15;;;;;;;;;;4923434;29;20036;-86
2021/10/08 06:00:45;;;;;;;16.23;11.77;;;;;;;;;;4930276;29;20584;-86
2021/10/08 06:03:12;;;;;;;22.30;13.48;;;;;;;;;;4930928;29;20036;-86
2021/10/08 06:05:40;;;;;;;17.85;12.45;;;;;;;;;;4931593;29;20204;-86
2021/10/08 06:08:12;;;;;;;20.15;12.60;;;;;;;;;;4952416;28;20046;-87
2021/10/08 06:10:44;;;;;;;15.00;10.30;;;;;;;;;;4920834;29;20052;-86
2021/10/08 06:13:14;;;;;;;19.90;11.40;;;;;;;;;;4931792;29;20039;-87
2021/10/08 06:15:42;;;;;;;16.05;11.95;;;;;;;;;;4931250;29;20055;-86
2021/10/08 06:18:11;;;;;;;16.15;12.05;;;;;;;;;;4927410;29;20056;-86
2021/10/08 06:20:41;;;;;;;16.70;12.02;;;;;;;;;;4930354;29;20056;-86
2021/10/08 06:23:12;;;;;;;21.67;13.38;;;;;;;;;;4920649;29;20055;-87
2021/10/08 06:25:39;;;;;;;14.90;12.38;;;;;;;;;;4926056;29;20058;-86
2021/10/08 06:28:09;;;;;;;18.75;12.63;;;;;;;;;;4933602;29;20043;-87
2021/10/08 06:30:37;;;;;;;17.00;11.98;;;;;;;;;;4935594;29;20224;-86
2021/10/08 06:33:04;;;;;;;18.77;11.40;;;;;;;;;;4928859;29;20561;-86
2021/10/08 06:35:34;;;;;;;18.73;12.75;;;;;;;;;;4930928;29;20130;-87
2021/10/08 06:38:04;;;;;;;18.10;12.60;;;;;;;;;;4936928;29;20048;-86
2021/10/08 06:40:32;;;;;;;18.33;11.82;;;;;;;;;;4932746;29;20522;-86
2021/10/08 06:43:01;;;;;;;18.92;12.25;;;;;;;;;;4931750;29;20040;-87
2021/10/08 06:45:52;;;;;;;15.23;12.40;;;;;;;;;;4926951;29;20075;-86
2021/10/08 06:48:21;;;;;;;17.92;11.30;;;;;;;;;;4955004;28;20111;-86
2021/10/08 06:50:51;;;;;;;13.73;10.02;;;;;;;;;;4952751;28;20016;-87
2021/10/08 06:53:19;;;;;;;13.52;8.02;;;;;;;;;;4937895;29;20474;-87
2021/10/08 06:55:49;;;;;;;9.35;7.53;;;;;;;;;;4946699;29;20078;-86
2021/10/08 06:58:24;;;;;;;9.27;7.15;;;;;;;;;;4951533;28;20055;-87
2021/10/08 07:00:54;;;;;;;12.23;8.60;;;;;;;;;;4923081;29;20048;-87
2021/10/08 07:03:22;;;;;;;11.98;8.27;;;;;;;;;;4931304;29;20048;-87
2021/10/08 07:05:49;;;;;;;11.45;7.57;;;;;;;;;;4931315;29;20050;-88
2021/10/08 07:08:18;;;;;;;8.05;6.93;;;;;;;;;;4934100;29;20054;-87
2021/10/08 07:10:46;;;;;;;9.63;6.68;;;;;;;;;;4939065;29;20107;-87
2021/10/08 07:13:14;;;;;;;10.23;7.03;;;;;;;;;;4923418;29;20078;-87
2021/10/08 07:15:42;;;;;;;11.00;8.88;;;;;;;;;;4930241;29;20457;-88
2021/10/08 07:18:14;;;;;;;9.13;7.57;;;;;;;;;;4932451;29;20055;-88
2021/10/08 07:20:41;;;;;;;9.30;7.35;;;;;;;;;;4933780;28;20553;-87
2021/10/08 07:23:09;;;;;;;10.80;8.32;;;;;;;;;;4946549;29;20406;-87
2021/10/08 07:25:38;;;;;;;12.35;8.93;;;;;;;;;;4928717;29;20107;-88
2021/10/08 07:28:05;;;;;;;10.05;8.80;;;;;;;;;;4933011;29;20106;-88
2021/10/08 07:30:33;;;;;;;10.68;9.68;;;;;;;;;;4929855;29;20040;-87
2021/10/08 07:33:00;;;;;;;11.60;9.00;;;;;;;;;;4930970;29;20043;-87
2021/10/08 07:35:28;;;;;;;11.75;9.32;;;;;;;;;;4932947;29;20052;-87
2021/10/08 07:37:55;;;;;;;11.45;9.25;;;;;;;;;;4936575;29;20039;-87
2021/10/08 07:40:23;;;;;;;9.65;8.65;;;;;;;;;;4936558;28;20099;-87
2021/10/08 07:42:51;;;;;;;11.88;9.48;;;;;;;;;;4959124;28;20044;-87
2021/10/08 07:45:19;;;;;;;10.35;9.13;;;;;;;;;;4963674;28;20063;-87
2021/10/08 07:47:46;;;;;;;12.98;9.50;;;;;;;;;;4959927;28;20040;-87
2021/10/08 07:50:14;;;;;;;10.38;9.02;;;;;;;;;;4958379;28;20043;-87
2021/10/08 07:52:42;;;;;;;12.73;9.85;;;;;;;;;;4943774;29;20484;-87
2021/10/08 07:55:10;;;;;;;11.57;8.77;;;;;;;;;;4940871;29;20134;-87
2021/10/08 07:57:38;;;;;;;14.18;9.40;;;;;;;;;;4930848;29;20075;-88
2021/10/08 08:00:09;;;;;;;12.32;8.93;;;;;;;;;;4926049;29;20040;-88
2021/10/08 08:02:39;;;;;;;12.85;9.10;;;;;;;;;;4926589;29;20067;-87
2021/10/08 08:05:07;;;;;;;11.13;8.93;;;;;;;;;;4936645;29;20131;-87
2021/10/08 08:07:34;;;;;;;10.60;9.30;;;;;;;;;;4935869;29;20108;-88
2021/10/08 08:10:02;;;;;;;11.05;9.32;;;;;;;;;;4924070;29;20569;-87
2021/10/08 08:12:29;;;;;;;10.60;9.50;;;;;;;;;;4935099;29;20036;-86
2021/10/08 08:14:56;;;;;;;10.25;8.52;;;;;;;;;;4934941;29;20052;-87
2021/10/08 08:17:26;;;;;;;12.30;9.15;;;;;;;;;;4935466;29;20296;-88
2021/10/08 08:19:53;;;;;;;9.48;8.52;;;;;;;;;;4932889;29;20118;-88
2021/10/08 08:22:20;;;;;;;9.90;8.70;;;;;;;;;;4935213;29;20047;-87
2021/10/08 08:24:48;;;;;;;10.55;8.35;;;;;;;;;;4933267;29;20490;-87
2021/10/08 08:27:16;;;;;;;12.30;9.27;;;;;;;;;;4940570;29;20071;-88
2021/10/08 08:29:43;;;;;;;9.23;8.38;;;;;;;;;;4939952;29;20138;-87
2021/10/08 08:32:11;;;;;;;10.80;8.43;;;;;;;;;;4935645;29;20564;-87
2021/10/08 08:34:40;;;;;;;11.10;8.50;;;;;;;;;;4933747;29;20050;-87
2021/10/08 08:37:07;;;;;;;9.50;8.48;;;;;;;;;;4935875;29;20048;-87
2021/10/08 08:39:38;;;;;;;9.65;7.75;;;;;;;;;;4934616;29;20044;-88
2021/10/08 08:42:06;;;;;;;12.43;7.32;;;;;;;;;;4933681;29;20050;-88
2021/10/08 08:44:34;;;;;;;10.82;7.57;;;;;;;;;;4934727;29;20038;-86
2021/10/08 08:47:01;;;;;;;10.27;7.57;;;;;;;;;;4950230;29;20052;-88
2021/10/08 08:49:29;;;;;;;8.85;7.93;;;;;;;;;;4935303;29;20059;-88
2021/10/08 08:51:57;;;;;;;12.88;8.20;;;;;;;;;;4932656;29;20056;-87
2021/10/08 08:54:25;;;;;;;8.85;7.53;;;;;;;;;;4930945;29;20056;-87
2021/10/08 08:56:52;;;;;;;8.65;7.18;;;;;;;;;;4924610;29;20070;-87
2021/10/08 08:59:20;;;;;;;9.23;7.13;;;;;;;;;;4933391;29;20138;-87
2021/10/08 09:02:02;;;;;;;10.73;7.65;;;;;;;;;;4932262;29;20059;-87
2021/10/08 09:04:30;;;;;;;14.35;8.85;;;;;;;;;;4938451;29;20082;-87
2021/10/08 09:06:58;;;;;;;12.57;8.50;;;;;;;;;;4946137;29;20115;-87
2021/10/08 09:09:27;;;;;;;8.93;7.65;;;;;;;;;;4939088;29;20099;-88
2021/10/08 09:11:57;;;;;;;10.77;8.00;;;;;;;;;;4934438;29;20115;-88
2021/10/08 09:14:26;;;;;;;8.55;7.05;;;;;;;;;;4933082;29;20044;-88
2021/10/08 09:17:06;;;;;;;8.07;7.28;;;;;;;;;;4935469;29;21186;-88
2021/10/08 09:20:00;;;;;;;9.00;7.10;;;;;;;;;;4935726;29;20545;-91
2021/10/08 09:22:49;;;;;;;7.88;7.05;;;;;;;;;;4870735;29;20099;-89
2021/10/08 09:25:19;;;;;;;8.55;7.22;;;;;;;;;;4934113;29;20044;-86
2021/10/08 09:27:48;;;;;;;8.05;7.35;;;;;;;;;;4933121;29;20044;-86
2021/10/08 09:30:17;;;;;;;9.52;7.63;;;;;;;;;;4946291;28;20132;-88
2021/10/08 09:32:45;;;;;;;8.15;7.35;;;;;;;;;;4932727;29;20058;-88
2021/10/08 09:35:14;;;;;;;12.65;7.78;;;;;;;;;;4936984;29;20040;-90
2021/10/08 09:37:46;;;;;;;8.95;7.15;;;;;;;;;;4935026;29;20051;-90
2021/10/08 09:43:28;;;;;;;9.18;7.60;;;;;;;;;;4953943;28;20034;-92
2021/10/08 09:46:00;;;;;;;11.82;8.48;;;;;;;;;;4960689;28;20031;-91
2021/10/08 09:48:41;;;;;;;7.60;6.90;;;;;;;;;;4944961;29;20552;-91
2021/10/08 09:51:11;;;;;;;12.43;7.60;;;;;;;;;;4936570;29;20048;-90
2021/10/08 09:53:57;;;;;;;10.60;7.57;;;;;;;;;;4933030;29;20047;-90
2021/10/08 09:56:32;;;;;;;9.32;7.18;;;;;;;;;;4929005;29;20076;-91
2021/10/08 09:59:01;;;;;;;6.88;6.20;;;;;;;;;;4927062;29;20503;-91
2021/10/08 10:01:29;;;;;;;7.78;6.63;;;;;;;;;;4929333;29;20048;-89
2021/10/08 10:03:57;;;;;;;11.27;7.10;;;;;;;;;;4930034;29;20040;-89
2021/10/08 10:06:25;;;;;;;9.40;6.93;;;;;;;;;;4937252;29;20043;-90
2021/10/08 10:08:54;;;;;;;8.48;5.93;;;;;;;;;;4953179;29;20050;-89
2021/10/08 10:11:22;;;;;;;9.35;6.28;;;;;;;;;;4928271;29;20051;-90
2021/10/08 10:13:52;;;;;;;8.30;5.85;;;;;;;;;;4933876;29;20048;-89
2021/10/08 10:16:20;;;;;;;7.75;6.13;;;;;;;;;;4933312;29;20040;-90
2021/10/08 10:18:50;;;;;;;8.95;6.07;;;;;;;;;;4928126;29;20517;-88
2021/10/08 10:21:20;;;;;;;7.63;6.18;;;;;;;;;;4925301;29;20099;-90
2021/10/08 10:23:51;;;;;;;11.13;6.45;;;;;;;;;;4931904;29;20353;-88
2021/10/08 10:26:20;;;;;;;13.13;6.43;;;;;;;;;;4937228;29;20436;-86
2021/10/08 10:28:48;;;;;;;10.85;7.07;;;;;;;;;;4924287;29;20043;-87
2021/10/08 10:31:15;;;;;;;10.35;6.30;;;;;;;;;;4925547;29;20565;-87
2021/10/08 10:33:43;;;;;;;6.65;5.97;;;;;;;;;;4924761;29;20036;-87
2021/10/08 10:36:22;;;;;;;8.15;5.57;;;;;;;;;;4925292;29;20091;-86
2021/10/08 10:38:50;;;;;;;8.80;6.10;;;;;;;;;;4948463;28;20032;-86
2021/10/08 10:41:32;;;;;;;10.15;6.18;;;;;;;;;;4950204;29;20059;-87
2021/10/08 10:44:19;;;;;;;15.45;6.70;;;;;;;;;;4955329;29;20031;-85
2021/10/08 10:46:51;;;;;;;9.20;7.00;;;;;;;;;;4951212;28;20047;-88
2021/10/08 10:52:11;;;;;;;11.75;7.53;;;;;;;;;;4950356;29;20066;-86
2021/10/08 10:55:02;;;;;;;10.98;8.07;;;;;;;;;;4952538;28;20095;-86
2021/10/08 10:57:49;;;;;;;9.77;8.13;;;;;;;;;;4927943;29;20040;-86
2021/10/08 11:00:25;;;;;;;12.75;9.73;;;;;;;;;;4925844;29;20143;-86
2021/10/08 11:03:09;;;;;;;13.73;9.93;;;;;;;;;;4928260;29;20498;-86
2021/10/08 11:05:38;;;;;;;13.65;10.55;;;;;;;;;;4924624;29;20426;-86
2021/10/08 11:08:08;;;;;;;18.90;10.63;;;;;;;;;;4933738;29;20054;-86
2021/10/08 11:10:37;;;;;;;11.18;9.98;;;;;;;;;;4927950;29;20138;-86
2021/10/08 11:13:24;;;;;;;12.48;9.82;;;;;;;;;;4930316;29;20035;-87
2021/10/08 11:15:57;;;;;;;14.10;10.52;;;;;;;;;;4929095;29;20071;-87
2021/10/08 11:18:40;;;;;;;15.63;11.15;;;;;;;;;;4925775;29;20079;-87
2021/10/08 11:21:09;;;;;;;11.90;10.73;;;;;;;;;;4921799;29;20048;-87
2021/10/08 11:29:54;;;;;;;12.57;11.07;;;;;;;;;;4939867;28;20051;-91
2021/10/08 11:32:23;;;;;;;13.68;11.90;;;;;;;;;;4936077;29;20152;-92
2021/10/08 11:34:52;;;;;;;13.63;11.13;;;;;;;;;;4938450;29;20044;-90
2021/10/08 11:37:22;;;;;;;15.80;12.85;;;;;;;;;;4949795;29;20099;-90
2021/10/08 11:40:00;;;;;;;16.23;12.60;;;;;;;;;;4958336;28;20058;-90
2021/10/08 11:42:51;;;;;;;15.88;13.15;;;;;;;;;;4951833;28;20031;-90
2021/10/08 11:45:26;;;;;;;16.08;14.20;;;;;;;;;;4959342;29;20034;-91
2021/10/08 11:48:07;;;;;;;16.48;14.18;;;;;;;;;;4952235;29;20054;-92
2021/10/08 11:50:51;;;;;;;15.52;13.70;;;;;;;;;;4943655;29;20099;-89
2021/10/08 11:53:18;;;;;;;22.23;14.32;;;;;;;;;;4936291;29;20048;-89
2021/10/08 11:55:46;;;;;;;19.65;14.40;;;;;;;;;;4932890;29;20166;-90
2021/10/08 11:58:16;;;;;;;20.77;14.48;;;;;;;;;;4935136;29;20083;-90
2021/10/08 12:00:47;;;;;;;18.23;14.82;;;;;;;;;;4926639;29;20063;-90
2021/10/08 12:03:18;;;;;;;18.90;15.35;;;;;;;;;;4949793;29;20043;-92
2021/10/08 12:05:47;;;;;;;21.50;16.17;;;;;;;;;;4941029;29;20048;-92
2021/10/08 12:08:16;;;;;;;20.00;16.00;;;;;;;;;;4936511;29;20538;-92
2021/10/08 12:10:55;;;;;;;20.33;16.20;;;;;;;;;;4935146;29;20108;-92
2021/10/08 12:13:24;;;;;;;21.48;16.55;;;;;;;;;;4951813;29;20039;-91
2021/10/08 12:16:03;;;;;;;22.55;16.35;;;;;;;;;;4938025;29;20056;-92
2021/10/08 12:18:34;;;;;;;18.70;16.00;;;;;;;;;;4936248;29;20048;-91
2021/10/08 12:21:12;;;;;;;20.40;15.38;;;;;;;;;;4939911;29;20323;-91
2021/10/08 12:23:40;;;;;;;20.17;16.10;;;;;;;;;;4930558;29;20048;-91
2021/10/08 12:26:08;;;;;;;28.38;15.40;;;;;;;;;;4938836;29;20039;-92
2021/10/08 12:28:36;;;;;;;16.90;14.23;;;;;;;;;;4951149;28;20043;-92
2021/10/08 12:31:07;;;;;;;23.77;15.13;;;;;;;;;;4955221;28;20053;-90
2021/10/08 12:33:38;;;;;;;23.05;15.73;;;;;;;;;;4939604;29;20074;-91
2021/10/08 12:36:14;;;;;;;19.63;14.55;;;;;;;;;;4958561;29;20047;-91
2021/10/08 12:38:54;;;;;;;18.15;15.35;;;;;;;;;;4953470;28;20576;-91
2021/10/08 12:41:23;;;;;;;18.83;14.10;;;;;;;;;;4945558;28;20134;-90
2021/10/08 12:43:51;;;;;;;16.17;14.13;;;;;;;;;;4938986;29;20050;-91
2021/10/08 12:46:21;;;;;;;19.80;15.30;;;;;;;;;;4954960;29;20524;-92
2021/10/08 12:49:02;;;;;;;16.83;14.35;;;;;;;;;;4954820;28;20098;-91
2021/10/08 12:51:33;;;;;;;16.75;14.95;;;;;;;;;;4954929;28;20588;-91
2021/10/08 12:54:14;;;;;;;16.90;14.13;;;;;;;;;;4945212;29;20050;-92
2021/10/08 12:56:49;;;;;;;18.05;14.43;;;;;;;;;;4958317;28;20047;-92
2021/10/08 12:59:42;;;;;;;15.27;13.68;;;;;;;;;;4925501;29;20094;-91
2021/10/08 13:02:22;;;;;;;15.77;14.18;;;;;;;;;;4954952;28;20075;-93
2021/10/08 13:08:08;;;;;;;17.27;15.45;;;;;;;;;;4941096;29;20051;-92
2021/10/08 13:13:51;;;;;;;20.20;15.98;;;;;;;;;;4890848;29;20053;-92
2021/10/08 13:16:43;;;;;;;18.48;15.25;;;;;;;;;;4948079;28;20055;-92
2021/10/08 13:19:40;;;;;;;;;;;;;;;;;;;;;
2021/10/08 13:25:27;;;;;;;18.67;15.18;;;;;;;;;;4953393;29;20044;-91
2021/10/08 13:28:18;;;;;;;21.65;15.73;;;;;;;;;;4939655;28;20051;-92
2021/10/08 13:30:59;;;;;;;17.75;15.52;;;;;;;;;;4955386;29;20048;-92
2021/10/08 13:33:43;;;;;;;18.33;15.70;;;;;;;;;;4945390;28;20050;-93
2021/10/08 13:36:20;;;;;;;17.15;14.77;;;;;;;;;;4950735;29;20127;-92
2021/10/08 13:39:05;;;;;;;17.80;15.57;;;;;;;;;;4961266;28;20149;-92
2021/10/08 13:41:34;;;;;;;19.27;15.70;;;;;;;;;;4966072;28;20050;-91
2021/10/08 13:44:10;;;;;;;17.55;15.65;;;;;;;;;;4960013;28;20027;-91
2021/10/08 13:47:03;;;;;;;19.23;15.30;;;;;;;;;;4963770;28;20074;-92
2021/10/08 13:49:41;;;;;;;18.10;15.80;;;;;;;;;;4943687;28;20054;-92
2021/10/08 13:52:13;;;;;;;19.23;17.25;;;;;;;;;;4937376;29;20059;-91
2021/10/08 13:54:52;;;;;;;20.90;16.60;;;;;;;;;;4942335;29;20058;-91
2021/10/08 13:57:30;;;;;;;20.25;16.27;;;;;;;;;;4943090;29;20059;-92
2021/10/08 14:00:12;;;;;;;22.33;16.70;;;;;;;;;;4945154;28;20084;-93
2021/10/08 14:02:49;;;;;;;20.33;17.92;;;;;;;;;;4973324;28;20052;-92
2021/10/08 14:11:11;;;;;;;22.30;18.25;;;;;;;;;;4944510;29;20055;-92
2021/10/08 14:16:47;;;;;;;19.38;15.70;;;;;;;;;;4863250;29;20058;-92
2021/10/08 14:22:21;;;;;;;17.95;16.20;;;;;;;;;;4951748;29;20572;-91
2021/10/08 14:25:13;;;;;;;17.73;15.90;;;;;;;;;;4944502;29;20101;-93
2021/10/08 15:07:38;;;;;;;20.85;15.38;;;;;;;;;;4953983;28;20509;-92
2021/10/08 15:10:48;;;;;;;24.50;16.52;;;;;;;;;;4972485;28;20047;-91
2021/10/08 15:13:45;;;;;;;20.40;16.02;;;;;;;;;;4960310;28;20541;-91
2021/10/08 15:16:32;;;;;;;18.17;15.20;;;;;;;;;;4961192;28;20043;-91
2021/10/08 15:21:54;;;;;;;18.30;14.98;;;;;;;;;;4940626;29;20083;-90
2021/10/08 15:24:22;;;;;;;19.95;15.38;;;;;;;;;;4957048;28;20054;-91
2021/10/08 15:26:55;;;;;;;18.67;15.15;;;;;;;;;;4955455;28;20130;-91
2021/10/08 15:29:35;;;;;;;15.25;13.75;;;;;;;;;;4948248;28;20064;-91
2021/10/08 15:32:05;;;;;;;15.82;14.00;;;;;;;;;;4945635;28;20047;-92
2021/10/08 15:34:43;;;;;;;16.90;15.05;;;;;;;;;;4973968;28;20047;-91
2021/10/08 15:37:17;;;;;;;18.65;15.07;;;;;;;;;;4972177;28;20140;-92
2021/10/08 15:39:57;;;;;;;17.73;15.10;;;;;;;;;;4970056;28;20031;-91
2021/10/08 15:42:31;;;;;;;18.33;14.77;;;;;;;;;;4966975;28;20106;-91
2021/10/08 15:45:15;;;;;;;22.92;16.55;;;;;;;;;;4981919;28;20031;-91
2021/10/08 15:47:43;;;;;;;17.42;15.65;;;;;;;;;;4990926;28;20051;-91
2021/10/08 15:50:14;;;;;;;23.02;16.35;;;;;;;;;;4963112;28;20069;-91
2021/10/08 15:52:45;;;;;;;53.85;19.08;;;;;;;;;;4954772;28;20043;-91
2021/10/08 15:55:25;;;;;;;29.73;16.98;;;;;;;;;;4955739;28;20071;-90
2021/10/08 16:01:31;;;;;;;54.47;20.13;;;;;;;;;;4986327;23;20047;-90
2021/10/08 16:04:01;;;;;;;23.50;15.80;;;;;;;;;;4960041;29;20548;-92
2021/10/08 16:09:12;;;;;;;19.08;16.20;;;;;;;;;;4952563;29;20051;-90
2021/10/08 16:11:41;;;;;;;18.65;15.90;;;;;;;;;;5163832;23;20051;-92
2021/10/08 16:14:17;;;;;;;24.13;16.48;;;;;;;;;;4982227;28;20091;-92
2021/10/08 16:17:12;;;;;;;22.50;17.17;;;;;;;;;;4982389;28;20524;-91
2021/10/08 16:19:44;;;;;;;21.30;17.10;;;;;;;;;;4978332;28;20051;-89
2021/10/08 16:22:14;;;;;;;21.52;17.25;;;;;;;;;;4981310;28;20039;-89
2021/10/08 16:24:46;;;;;;;21.52;17.00;;;;;;;;;;4987995;28;20053;-90
2021/10/08 16:27:14;;;;;;;21.30;16.52;;;;;;;;;;4983882;28;20039;-90
2021/10/08 16:29:44;;;;;;;23.70;17.42;;;;;;;;;;4981085;28;20042;-89
2021/10/08 16:32:13;;;;;;;26.13;18.77;;;;;;;;;;4979967;28;20050;-89
2021/10/08 16:34:46;;;;;;;23.13;20.73;;;;;;;;;;4980988;28;20402;-90
2021/10/08 16:37:16;;;;;;;20.65;17.50;;;;;;;;;;4984933;28;20042;-90
2021/10/08 16:39:47;;;;;;;23.10;19.48;;;;;;;;;;4991118;28;20043;-89
2021/10/08 16:42:16;;;;;;;21.63;18.08;;;;;;;;;;4997148;28;20043;-90
2021/10/08 16:44:44;;;;;;;22.10;18.92;;;;;;;;;;4995458;28;20058;-89
2021/10/08 16:47:15;;;;;;;25.42;18.88;;;;;;;;;;4981977;28;20031;-89
2021/10/08 16:49:43;;;;;;;23.50;20.60;;;;;;;;;;4985952;28;20054;-90
2021/10/08 16:52:12;;;;;;;24.20;20.80;;;;;;;;;;4980235;28;20053;-89
2021/10/08 16:54:47;;;;;;;22.73;20.33;;;;;;;;;;4979855;28;20066;-90
2021/10/08 16:57:22;;;;;;;25.92;22.38;;;;;;;;;;4994739;28;20042;-89
2021/10/08 16:59:50;;;;;;;26.05;22.52;;;;;;;;;;5001554;28;20029;-89
2021/10/08 17:02:19;;;;;;;28.42;21.45;;;;;;;;;;5000805;28;20121;-90
2021/10/08 17:04:54;;;;;;;33.22;23.65;;;;;;;;;;5014198;28;20078;-90
2021/10/08 17:07:24;;;;;;;;;;;;;;;;;;5003272;28;20545;-89
2021/10/08 17:09:52;;;;;;;22.92;19.88;;;;;;;;;;5005191;28;19910;-91
2021/10/08 17:12:20;;;;;;;23.25;20.83;;;;;;;;;;4987461;28;20062;-90
2021/10/08 17:14:47;;;;;;;25.05;22.00;;;;;;;;;;4998793;28;20042;-90
2021/10/08 17:17:15;;;;;;;29.02;24.10;;;;;;;;;;4978568;28;20138;-89
2021/10/08 17:19:46;;;;;;;30.42;24.90;;;;;;;;;;4988346;28;20415;-90
2021/10/08 17:22:16;;;;;;;27.27;23.70;;;;;;;;;;4991163;28;20115;-90
2021/10/08 17:24:51;;;;;;;30.45;24.73;;;;;;;;;;4989684;28;20098;-91
2021/10/08 17:27:25;;;;;;;30.50;25.67;;;;;;;;;;4977869;28;20050;-89
2021/10/08 17:30:09;;;;;;;29.27;25.88;;;;;;;;;;4980420;28;20549;-90
2021/10/08 17:35:25;;;;;;;35.33;28.70;;;;;;;;;;4987467;28;20034;-90
2021/10/08 17:37:53;;;;;;;33.03;29.45;;;;;;;;;;4997260;28;20043;-90
2021/10/08 17:40:21;;;;;;;33.95;27.50;;;;;;;;;;5004775;28;20065;-91
2021/10/08 17:42:48;;;;;;;36.28;28.65;;;;;;;;;;5012885;28;20053;-91
2021/10/08 17:45:17;;;;;;;31.20;27.65;;;;;;;;;;5010187;28;20027;-90
2021/10/08 17:47:49;;;;;;;38.75;29.23;;;;;;;;;;5002322;28;20035;-90
2021/10/08 17:50:18;;;;;;;32.05;28.00;;;;;;;;;;4981246;28;20520;-90
2021/10/08 17:52:49;;;;;;;37.47;28.35;;;;;;;;;;4982277;28;20142;-90
2021/10/08 17:55:16;;;;;;;40.05;29.48;;;;;;;;;;4991929;28;20057;-91
2021/10/08 17:57:44;;;;;;;36.15;29.92;;;;;;;;;;4990511;28;20519;-91
2021/10/08 18:00:12;;;;;;;35.70;30.70;;;;;;;;;;4992752;28;20093;-90
2021/10/08 18:02:42;;;;;;;34.15;30.05;;;;;;;;;;4986511;28;20042;-91
2021/10/08 18:05:10;;;;;;;38.88;31.17;;;;;;;;;;4990129;28;20038;-90
2021/10/08 18:07:38;;;;;;;44.88;30.83;;;;;;;;;;4988524;28;20072;-91
2021/10/08 18:10:09;;;;;;;40.22;32.35;;;;;;;;;;4976127;28;20051;-91
2021/10/08 18:12:37;;;;;;;44.55;33.30;;;;;;;;;;4994111;28;20046;-91
2021/10/08 18:15:07;;;;;;;41.05;33.35;;;;;;;;;;4991143;28;20038;-91
2021/10/08 18:17:37;;;;;;;40.13;32.95;;;;;;;;;;5002034;28;20043;-91
2021/10/08 18:20:06;;;;;;;48.22;33.33;;;;;;;;;;4981088;28;20096;-91
2021/10/08 18:22:33;;;;;;;42.88;33.05;;;;;;;;;;4988765;28;20042;-90
2021/10/08 18:25:01;;;;;;;50.22;37.97;;;;;;;;;;5011468;28;20045;-90
2021/10/08 18:27:33;;;;;;;45.10;36.17;;;;;;;;;;4998094;28;20049;-90
2021/10/08 18:30:02;;;;;;;48.42;37.28;;;;;;;;;;4985311;28;20421;-90
2021/10/08 18:32:31;;;;;;;48.00;36.80;;;;;;;;;;4987111;28;20046;-90
2021/10/08 18:34:58;;;;;;;50.75;38.08;;;;;;;;;;4982958;28;20050;-90
2021/10/08 18:37:30;;;;;;;46.05;37.80;;;;;;;;;;4986981;28;20101;-90
2021/10/08 18:40:00;;;;;;;46.20;36.75;;;;;;;;;;4986371;28;20092;-90
2021/10/08 18:42:27;;;;;;;47.97;38.78;;;;;;;;;;4979988;28;20046;-90
2021/10/08 18:44:57;;;;;;;57.55;43.90;;;;;;;;;;4994102;28;20042;-91
2021/10/08 18:47:26;;;;;;;58.55;45.80;;;;;;;;;;4991342;28;20134;-90
2021/10/08 18:49:54;;;;;;;51.83;39.30;;;;;;;;;;4993304;28;20039;-90
2021/10/08 18:52:22;;;;;;;52.17;39.75;;;;;;;;;;4988419;28;20073;-91
2021/10/08 18:54:50;;;;;;;50.28;40.40;;;;;;;;;;4992337;28;20054;-91
2021/10/08 18:57:18;;;;;;;57.00;40.00;;;;;;;;;;4987052;28;20101;-90
2021/10/08 18:59:46;;;;;;;54.88;42.95;;;;;;;;;;4991604;28;20133;-90
2021/10/08 19:02:15;;;;;;;55.22;42.25;;;;;;;;;;4979578;28;20428;-91
2021/10/08 19:04:44;;;;;;;58.75;43.80;;;;;;;;;;4991835;28;20103;-91
2021/10/08 19:07:13;;;;;;;54.30;41.08;;;;;;;;;;4989587;28;20314;-90
2021/10/08 19:09:43;;;;;;;58.03;42.22;;;;;;;;;;4989020;28;20084;-91
2021/10/08 19:12:13;;;;;;;53.80;43.08;;;;;;;;;;4985763;28;20145;-88
2021/10/08 19:14:46;;;;;;;57.45;44.45;;;;;;;;;;4977931;28;20127;-90
2021/10/08 19:22:42;;;;;;;54.72;43.28;;;;;;;;;;4976570;28;20125;-90
2021/10/08 19:25:10;;;;;;;62.45;44.78;;;;;;;;;;4977763;28;20046;-91
2021/10/08 19:27:38;;;;;;;58.67;45.30;;;;;;;;;;4978723;28;20042;-91
2021/10/08 19:30:06;;;;;;;61.80;46.05;;;;;;;;;;4992233;28;20056;-91
2021/10/08 19:32:33;;;;;;;63.85;47.30;;;;;;;;;;4987873;28;20069;-90
2021/10/08 19:35:16;;;;;;;82.88;50.17;;;;;;;;;;4996024;28;20043;-91
2021/10/08 19:37:45;;;;;;;74.63;48.20;;;;;;;;;;5181488;23;20055;-91
2021/10/08 19:40:13;;;;;;;71.88;47.50;;;;;;;;;;5007989;28;20030;-91
2021/10/08 19:42:42;;;;;;;57.00;45.47;;;;;;;;;;5006775;28;20058;-90
2021/10/08 19:45:14;;;;;;;66.35;49.88;;;;;;;;;;5005631;28;20035;-92
2021/10/08 19:47:42;;;;;;;74.88;54.45;;;;;;;;;;4985647;28;20488;-91
2021/10/08 19:50:10;;;;;;;81.57;57.30;;;;;;;;;;4966859;28;20046;-93
2021/10/08 19:52:38;;;;;;;87.55;64.30;;;;;;;;;;4970751;28;20081;-91
2021/10/08 19:55:08;;;;;;;71.95;52.10;;;;;;;;;;4960275;28;20044;-92
2021/10/08 19:57:36;;;;;;;69.25;50.65;;;;;;;;;;4964425;28;20561;-91
2021/10/08 20:00:06;;;;;;;70.07;50.38;;;;;;;;;;4957221;28;20047;-92
2021/10/08 20:02:39;;;;;;;67.72;48.47;;;;;;;;;;4955194;28;20051;-92
2021/10/08 20:05:11;;;;;;;66.18;50.08;;;;;;;;;;4966806;28;20027;-91
2021/10/08 20:15:57;;;;;;;66.35;49.55;;;;;;;;;;4973635;28;20031;-92
2021/10/08 20:18:25;;;;;;;68.18;48.75;;;;;;;;;;4969362;28;20151;-92
2021/10/08 20:20:53;;;;;;;68.47;49.65;;;;;;;;;;4966207;28;20535;-92
2021/10/08 20:23:21;;;;;;;68.07;48.33;;;;;;;;;;4967866;28;20039;-92
2021/10/08 20:25:50;;;;;;;67.30;49.63;;;;;;;;;;4969739;28;20046;-92
2021/10/08 20:28:18;;;;;;;63.42;49.75;;;;;;;;;;4974323;28;20047;-92
2021/10/08 20:30:46;;;;;;;69.05;50.08;;;;;;;;;;4959946;28;20050;-91
2021/10/08 20:33:19;;;;;;;68.07;51.42;;;;;;;;;;4964390;28;20051;-91
2021/10/08 20:35:48;;;;;;;69.10;50.05;;;;;;;;;;4967292;28;20059;-91
2021/10/08 20:38:16;;;;;;;72.50;50.17;;;;;;;;;;4955156;28;20047;-91
2021/10/08 20:40:44;;;;;;;65.03;46.60;;;;;;;;;;4959789;28;20075;-91
2021/10/08 20:43:14;;;;;;;68.88;49.13;;;;;;;;;;4957614;28;20047;-92
2021/10/08 20:45:41;;;;;;;64.05;47.33;;;;;;;;;;4960329;28;20046;-92
2021/10/08 20:48:09;;;;;;;66.43;47.90;;;;;;;;;;4982790;28;20486;-91
2021/10/08 20:50:36;;;;;;;70.47;50.95;;;;;;;;;;4971076;28;20043;-92
2021/10/08 20:53:04;;;;;;;67.35;48.70;;;;;;;;;;4970154;28;20122;-91
2021/10/08 20:55:32;;;;;;;71.75;51.72;;;;;;;;;;4966866;28;20122;-91
2021/10/08 20:58:00;;;;;;;130.77;85.95;;;;;;;;;;4960818;28;20042;-92
2021/10/08 21:00:29;;;;;;;71.93;51.75;;;;;;;;;;4976939;28;20106;-91
2021/10/08 21:02:56;;;;;;;82.40;54.35;;;;;;;;;;4970755;28;20050;-91
2021/10/08 21:05:25;;;;;;;86.00;57.55;;;;;;;;;;4966128;28;20047;-91
2021/10/08 21:07:52;;;;;;;75.28;55.13;;;;;;;;;;4957684;28;20047;-92
2021/10/08 21:10:25;;;;;;;78.65;54.72;;;;;;;;;;4994329;28;20108;-92
2021/10/08 21:12:52;;;;;;;73.35;53.08;;;;;;;;;;4961379;28;20043;-92
2021/10/08 21:15:20;;;;;;;76.88;52.58;;;;;;;;;;4959514;28;20039;-91
2021/10/08 21:17:49;;;;;;;72.32;50.30;;;;;;;;;;4962514;28;20489;-91